Time;durP1;ratioP1;P1;durP2;ratioP2;P2;SDS_P1;SDS_P2;PMS_P1;PMS_P2;Temp;Humidity;BMP_temperature;BMP_pressure;BME280_temperature;BME280_humidity;BME280_pressure;Samples;Min_cycle;Max_cycle;Signal;HPM_P1;HPM_P2
2023/01/01 00:00:42;;;;;;;30.50;15.23;;;12.00;99.90;;;;;;4958196;28;20551;-81
2023/01/01 00:03:08;;;;;;;22.27;13.43;;;12.00;99.90;;;;;;4954371;28;20105;-79
2023/01/01 00:05:36;;;;;;;26.70;14.98;;;11.90;99.90;;;;;;4967548;28;20133;-76
2023/01/01 00:08:02;;;;;;;28.48;16.13;;;11.90;99.90;;;;;;4985738;28;20131;-76
2023/01/01 00:10:28;;;;;;;26.65;15.10;;;11.80;99.90;;;;;;4983733;28;20070;-85
2023/01/01 00:12:57;;;;;;;27.00;15.80;;;11.80;99.90;;;;;;4984104;28;20042;-79
2023/01/01 00:15:24;;;;;;;32.92;18.58;;;11.70;99.90;;;;;;4983828;28;20053;-79
2023/01/01 00:17:50;;;;;;;38.20;21.65;;;11.70;99.90;;;;;;5000592;28;20051;-79
2023/01/01 00:20:15;;;;;;;43.15;24.55;;;11.70;99.90;;;;;;4990446;28;20042;-79
2023/01/01 00:22:41;;;;;;;46.67;28.05;;;11.60;99.90;;;;;;4957097;28;20493;-80
2023/01/01 00:25:07;;;;;;;43.28;25.52;;;11.60;99.90;;;;;;4971243;28;20149;-80
2023/01/01 00:27:33;;;;;;;43.67;27.95;;;11.60;99.90;;;;;;4968146;28;20085;-81
2023/01/01 00:29:59;;;;;;;46.47;27.88;;;11.50;99.90;;;;;;4995785;28;20731;-81
2023/01/01 00:32:25;;;;;;;46.60;32.47;;;11.50;99.90;;;;;;4960994;28;20061;-80
2023/01/01 00:34:53;;;;;;;56.17;38.08;;;11.50;99.90;;;;;;4993024;28;20038;-81
2023/01/01 00:37:18;;;;;;;58.45;36.88;;;11.50;99.90;;;;;;4941739;28;20047;-81
2023/01/01 00:39:44;;;;;;;57.33;39.42;;;11.50;99.90;;;;;;4957106;28;20132;-80
2023/01/01 00:42:10;;;;;;;50.50;35.00;;;11.50;99.90;;;;;;4976888;28;20111;-81
2023/01/01 00:44:35;;;;;;;62.80;40.13;;;11.50;99.90;;;;;;4959727;28;20466;-83
2023/01/01 00:47:01;;;;;;;52.00;34.33;;;11.50;99.90;;;;;;4972087;28;20057;-81
2023/01/01 00:49:27;;;;;;;49.38;32.25;;;11.50;99.90;;;;;;4944246;28;20040;-81
2023/01/01 00:51:53;;;;;;;48.05;31.10;;;11.50;99.90;;;;;;4976962;28;20177;-81
2023/01/01 00:54:19;;;;;;;49.65;34.03;;;11.50;99.90;;;;;;4977073;28;20400;-81
2023/01/01 00:56:44;;;;;;;55.90;35.85;;;11.50;99.90;;;;;;4969120;28;20131;-81
2023/01/01 00:59:10;;;;;;;67.97;45.60;;;11.50;99.90;;;;;;4952477;28;21483;-80
2023/01/01 01:01:36;;;;;;;42.47;29.40;;;11.60;99.90;;;;;;4957358;28;20109;-80
2023/01/01 01:04:03;;;;;;;42.90;27.55;;;11.60;99.90;;;;;;4972437;28;20128;-80
2023/01/01 01:06:28;;;;;;;42.40;27.10;;;11.70;99.90;;;;;;4976584;28;20054;-80
2023/01/01 01:08:54;;;;;;;42.55;25.00;;;11.80;99.90;;;;;;4975604;28;20693;-80
2023/01/01 01:11:22;;;;;;;50.30;35.65;;;11.90;99.90;;;;;;4976251;28;20050;-81
2023/01/01 01:13:51;;;;;;;42.10;27.95;;;11.90;99.90;;;;;;4964945;28;20051;-81
2023/01/01 01:16:25;;;;;;;105.70;74.70;;;11.90;99.90;;;;;;4989168;28;20053;-83
2023/01/01 01:18:52;;;;;;;43.88;29.48;;;11.90;99.90;;;;;;4965240;28;20053;-82
2023/01/01 01:21:19;;;;;;;90.75;63.63;;;11.90;99.90;;;;;;4958918;28;20129;-81
2023/01/01 01:23:46;;;;;;;61.20;40.17;;;11.90;99.90;;;;;;4991919;28;20326;-81
2023/01/01 01:26:14;;;;;;;70.78;44.10;;;11.80;99.90;;;;;;4975992;28;20050;-82
2023/01/01 01:28:41;;;;;;;46.53;33.33;;;11.70;99.90;;;;;;4991780;28;20042;-82
2023/01/01 01:31:07;;;;;;;177.18;96.47;;;11.60;99.90;;;;;;4988745;28;20043;-81
2023/01/01 01:33:34;;;;;;;96.50;53.03;;;11.60;99.90;;;;;;4989656;28;20061;-80
2023/01/01 01:36:01;;;;;;;47.20;27.50;;;11.60;99.90;;;;;;4969123;28;20050;-80
2023/01/01 01:38:27;;;;;;;92.22;49.90;;;11.60;99.90;;;;;;4980932;28;20045;-81
2023/01/01 01:40:53;;;;;;;89.93;51.40;;;11.50;99.90;;;;;;5004484;28;20192;-80
2023/01/01 01:43:48;;;;;;;49.97;34.45;;;11.50;99.90;;;;;;4991597;28;20540;-83
2023/01/01 01:46:20;;;;;;;66.10;43.63;;;11.50;99.90;;;;;;4978345;28;20042;-82
2023/01/01 01:48:48;;;;;;;54.97;36.00;;;11.50;99.90;;;;;;4974921;28;20069;-80
2023/01/01 01:51:19;;;;;;;47.45;27.80;;;11.50;99.90;;;;;;4990065;28;20073;-80
2023/01/01 01:53:49;;;;;;;44.30;27.58;;;11.50;99.90;;;;;;4992217;28;20121;-80
2023/01/01 01:56:20;;;;;;;44.33;26.10;;;11.50;99.90;;;;;;4977520;28;20077;-80
2023/01/01 01:58:46;;;;;;;96.88;64.07;;;11.50;99.90;;;;;;4986954;28;20112;-81
2023/01/01 02:01:12;;;;;;;50.75;32.58;;;11.50;99.90;;;;;;4978131;28;20045;-80
2023/01/01 02:03:52;;;;;;;81.10;51.47;;;11.50;99.90;;;;;;4960994;28;20081;-80
2023/01/01 02:06:20;;;;;;;48.17;32.22;;;11.50;99.90;;;;;;4978111;28;20049;-79
2023/01/01 02:08:46;;;;;;;52.50;34.95;;;11.50;99.90;;;;;;4973310;28;20056;-80
2023/01/01 02:11:12;;;;;;;67.05;46.05;;;11.40;99.90;;;;;;4958067;28;20042;-79
2023/01/01 02:13:38;;;;;;;67.00;49.50;;;11.50;99.90;;;;;;4958437;28;20058;-80
2023/01/01 02:16:10;;;;;;;36.60;23.38;;;11.50;99.90;;;;;;4989180;28;20491;-79
2023/01/01 02:18:49;;;;;;;47.40;25.52;;;11.50;99.90;;;;;;4971927;28;20061;-82
2023/01/01 02:21:53;;;;;;;52.38;27.80;;;11.50;99.90;;;;;;4990070;28;20046;-79
2023/01/01 02:24:22;;;;;;;41.72;25.15;;;11.60;99.90;;;;;;4989841;28;20815;-83
2023/01/01 02:27:14;;;;;;;43.65;30.38;;;11.50;99.90;;;;;;4976124;28;20049;-79
2023/01/01 02:29:48;;;;;;;33.58;20.25;;;11.60;99.90;;;;;;4971799;28;20076;-79
2023/01/01 02:32:19;;;;;;;30.95;16.42;;;11.60;99.90;;;;;;4990832;28;20065;-79
2023/01/01 02:35:33;;;;;;;32.05;16.02;;;11.60;99.90;;;;;;4964839;28;20073;-83
2023/01/01 02:37:50;;;;;;;29.80;15.93;;;11.60;99.90;;;;;;4982778;28;20165;-85
2023/01/01 02:40:18;;;;;;;33.45;17.23;;;11.70;99.90;;;;;;4961828;28;20092;-79
2023/01/01 02:42:44;;;;;;;25.15;15.05;;;11.70;99.90;;;;;;4991798;28;20644;-79
2023/01/01 02:45:10;;;;;;;30.73;18.20;;;11.70;99.90;;;;;;4993893;28;20395;-79
2023/01/01 02:47:37;;;;;;;22.92;13.98;;;11.70;99.90;;;;;;4969847;28;20055;-79
2023/01/01 02:50:03;;;;;;;25.77;14.35;;;11.80;99.90;;;;;;4977211;28;20050;-80
2023/01/01 02:52:50;;;;;;;26.13;13.30;;;11.80;99.90;;;;;;4985324;28;20049;-79
2023/01/01 02:55:26;;;;;;;25.92;12.63;;;11.90;99.90;;;;;;4981868;28;20065;-80
2023/01/01 03:00:17;;;;;;;21.88;12.57;;;11.90;91.70;;;;;;4992118;28;20056;-79
2023/01/01 03:00:49;;;;;;;;;;;11.90;99.90;;;;;;4989226;28;20518;-86
2023/01/01 03:03:37;;;;;;;23.15;11.00;;;12.00;95.20;;;;;;4990828;28;19922;-79
2023/01/01 03:06:23;;;;;;;29.55;11.55;;;12.00;99.90;;;;;;4991122;28;20402;-78
2023/01/01 03:09:07;;;;;;;18.75;9.70;;;12.00;99.90;;;;;;4989391;28;20045;-78
2023/01/01 03:11:55;;;;;;;22.40;9.70;;;12.00;99.90;;;;;;4986138;28;20050;-79
2023/01/01 03:14:31;;;;;;;18.77;7.65;;;12.00;71.20;;;;;;4988000;28;20495;-80
2023/01/01 03:16:56;;;;;;;;;;;12.00;92.00;;;;;;4977996;28;20056;-79
2023/01/01 03:19:25;;;;;;;16.47;9.10;;;12.20;1.00;;;;;;4991481;28;19921;-78
2023/01/01 03:21:57;;;;;;;19.73;7.60;;;12.20;99.90;;;;;;4975490;28;20042;-80
2023/01/01 03:24:52;;;;;;;17.80;7.00;;;12.40;99.90;;;;;;4990337;28;20095;-77
2023/01/01 03:27:27;;;;;;;14.73;7.10;;;12.40;1.00;;;;;;4990178;28;20107;-77
2023/01/01 03:29:56;;;;;;;13.32;6.03;;;12.50;85.70;;;;;;4986975;28;20052;-84
2023/01/01 03:35:24;;;;;;;13.30;5.15;;;12.80;1.00;;;;;;5003985;28;20069;-80
2023/01/01 03:37:54;;;;;;;14.82;4.68;;;12.90;1.00;;;;;;4991692;28;20487;-77
2023/01/01 03:40:21;;;;;;;15.82;5.13;;;13.00;98.20;;;;;;4992886;28;20052;-76
2023/01/01 03:42:55;;;;;;;9.02;3.95;;;13.10;74.30;;;;;;4995905;28;20129;-78
2023/01/01 03:45:29;;;;;;;11.77;4.28;;;13.20;1.00;;;;;;5004535;28;20054;-77
2023/01/01 03:47:56;;;;;;;13.57;4.78;;;13.20;31.30;;;;;;5007266;28;20037;-83
2023/01/01 03:50:30;;;;;;;17.70;4.72;;;13.20;1.00;;;;;;4985748;28;20057;-77
2023/01/01 03:53:17;;;;;;;12.95;3.80;;;13.20;1.00;;;;;;4980265;28;20884;-81
2023/01/01 03:55:53;;;;;;;15.95;3.92;;;13.20;1.00;;;;;;4986551;28;20080;-82
2023/01/01 03:58:31;;;;;;;12.57;4.15;;;13.20;1.00;;;;;;4993296;28;20050;-74
2023/01/01 04:01:18;;;;;;;14.10;3.45;;;13.20;1.00;;;;;;4984968;28;20576;-85
2023/01/01 04:03:45;;;;;;;12.27;3.70;;;13.30;99.90;;;;;;4987177;28;20436;-78
2023/01/01 04:06:11;;;;;;;14.30;3.58;;;13.30;99.90;;;;;;4978810;28;20124;-77
2023/01/01 04:08:37;;;;;;;10.95;3.63;;;13.30;29.80;;;;;;4995197;28;20046;-78
2023/01/01 04:12:00;;;;;;;12.68;3.17;;;13.30;1.00;;;;;;4963578;28;20129;-77
2023/01/01 04:13:55;;;;;;;11.55;3.03;;;13.30;1.00;;;;;;4989305;28;20109;-77
2023/01/01 04:16:20;;;;;;;7.63;3.10;;;13.30;1.00;;;;;;5013825;28;20050;-77
2023/01/01 04:18:46;;;;;;;9.32;2.53;;;13.30;7.50;;;;;;5001475;28;20657;-78
2023/01/01 04:21:12;;;;;;;11.77;3.10;;;13.30;2.30;;;;;;4987972;28;20081;-79
2023/01/01 04:23:38;;;;;;;10.32;3.33;;;13.30;1.40;;;;;;4981721;28;20058;-79
2023/01/01 04:26:03;;;;;;;6.15;2.70;;;13.30;16.50;;;;;;4997049;28;20038;-77
2023/01/01 04:28:29;;;;;;;7.03;2.60;;;13.30;1.00;;;;;;4978218;28;20054;-82
2023/01/01 04:30:55;;;;;;;11.20;3.00;;;13.40;1.00;;;;;;4990508;28;20053;-77
2023/01/01 04:33:20;;;;;;;14.05;2.78;;;13.30;13.10;;;;;;4961880;28;20046;-77
2023/01/01 04:35:46;;;;;;;12.98;3.05;;;13.30;1.00;;;;;;4984957;28;20535;-78
2023/01/01 04:38:13;;;;;;;9.75;2.90;;;13.20;27.00;;;;;;4995383;28;20073;-77
2023/01/01 04:40:38;;;;;;;10.38;3.28;;;12.70;62.30;;;;;;4968912;28;20050;-78
2023/01/01 04:43:04;;;;;;;12.00;2.90;;;12.40;82.70;;;;;;4978805;28;20526;-83
2023/01/01 04:45:32;;;;;;;11.70;3.63;;;12.10;99.90;;;;;;4942067;28;20062;-78
2023/01/01 04:48:03;;;;;;;9.75;2.55;;;12.00;93.80;;;;;;4955602;28;20042;-78
2023/01/01 04:50:29;;;;;;;11.30;2.33;;;11.80;95.00;;;;;;4974385;28;20137;-79
2023/01/01 04:52:57;;;;;;;9.02;2.80;;;11.80;99.90;;;;;;4973942;28;20045;-77
2023/01/01 04:55:22;;;;;;;9.05;3.28;;;11.70;99.90;;;;;;4957242;28;20122;-78
2023/01/01 04:57:48;;;;;;;10.63;2.70;;;11.80;99.90;;;;;;4942065;28;20130;-77
2023/01/01 05:00:17;;;;;;;10.50;3.88;;;11.90;99.90;;;;;;4957175;28;20412;-76
2023/01/01 05:02:43;;;;;;;11.45;2.90;;;11.90;96.00;;;;;;4954823;28;20074;-79
2023/01/01 05:05:08;;;;;;;8.25;2.47;;;12.00;54.30;;;;;;4951085;28;20089;-78
2023/01/01 05:07:34;;;;;;;7.68;2.53;;;12.20;85.40;;;;;;4957489;28;20050;-77
2023/01/01 05:09:59;;;;;;;12.07;3.03;;;12.30;16.20;;;;;;4931549;28;20050;-77
2023/01/01 05:12:25;;;;;;;9.00;2.70;;;12.30;90.90;;;;;;4956802;28;20093;-77
2023/01/01 05:14:51;;;;;;;7.90;2.92;;;12.30;99.40;;;;;;4993107;28;20142;-77
2023/01/01 05:17:16;;;;;;;6.72;2.10;;;12.30;82.40;;;;;;4975345;28;20043;-78
2023/01/01 05:19:42;;;;;;;10.07;2.72;;;12.30;65.10;;;;;;4960839;28;20046;-77
2023/01/01 05:22:08;;;;;;;12.50;2.70;;;12.40;48.20;;;;;;4957534;28;20042;-84
2023/01/01 05:24:35;;;;;;;9.90;2.30;;;12.50;42.30;;;;;;4944756;28;20047;-77
2023/01/01 05:27:01;;;;;;;15.48;2.42;;;12.50;31.00;;;;;;4960757;28;20051;-77
2023/01/01 05:29:26;;;;;;;11.00;2.60;;;12.60;39.90;;;;;;4975827;28;20547;-77
2023/01/01 05:31:52;;;;;;;7.63;2.28;;;12.60;41.50;;;;;;4987590;28;20105;-77
2023/01/01 05:34:18;;;;;;;7.20;2.08;;;12.50;38.20;;;;;;4987714;28;20060;-77
2023/01/01 05:36:44;;;;;;;8.05;2.17;;;12.50;32.10;;;;;;4970038;28;20055;-76
2023/01/01 05:39:11;;;;;;;7.93;2.00;;;12.60;22.50;;;;;;4969374;28;20051;-82
2023/01/01 05:41:37;;;;;;;7.78;2.22;;;12.60;1.00;;;;;;4975062;28;20050;-77
2023/01/01 05:44:06;;;;;;;8.40;1.80;;;12.60;41.00;;;;;;4965561;28;20077;-77
2023/01/01 05:46:31;;;;;;;11.35;2.35;;;12.60;1.00;;;;;;4988660;28;20054;-77
2023/01/01 05:48:57;;;;;;;9.95;1.75;;;12.60;7.70;;;;;;4982775;28;20476;-77
2023/01/01 05:51:25;;;;;;;10.32;2.00;;;12.60;1.00;;;;;;4989204;28;20042;-77
2023/01/01 05:53:52;;;;;;;9.73;2.28;;;12.60;1.10;;;;;;4972981;28;20134;-77
2023/01/01 05:56:17;;;;;;;6.22;2.08;;;12.60;1.00;;;;;;4988398;28;20046;-78
2023/01/01 05:58:44;;;;;;;8.30;1.88;;;12.60;1.00;;;;;;4992633;28;20416;-77
2023/01/01 06:01:19;;;;;;;7.32;1.80;;;12.60;1.00;;;;;;4979263;28;20046;-78
2023/01/01 06:03:47;;;;;;;7.18;1.77;;;12.60;1.00;;;;;;4975754;28;20050;-77
2023/01/01 06:06:16;;;;;;;5.47;1.35;;;12.50;1.00;;;;;;4962487;28;20137;-85
2023/01/01 06:08:47;;;;;;;4.45;1.30;;;12.50;99.90;;;;;;4991407;28;20186;-77
2023/01/01 06:11:13;;;;;;;6.07;1.10;;;12.50;1.00;;;;;;4991310;28;20049;-81
2023/01/01 06:13:38;;;;;;;5.10;1.33;;;12.50;1.00;;;;;;4990990;28;20404;-77
2023/01/01 06:16:04;;;;;;;4.88;0.80;;;12.50;1.00;;;;;;4990736;28;20514;-77
2023/01/01 06:18:32;;;;;;;3.15;0.90;;;12.40;1.00;;;;;;4991474;28;20043;-77
2023/01/01 06:21:06;;;;;;;3.97;1.08;;;12.40;99.90;;;;;;4972857;28;20100;-77
2023/01/01 06:23:32;;;;;;;5.63;0.93;;;12.40;99.90;;;;;;4991119;28;20046;-77
2023/01/01 06:26:08;;;;;;;5.35;1.30;;;12.30;1.00;;;;;;4991005;28;20038;-77
2023/01/01 06:28:33;;;;;;;8.45;1.58;;;12.30;1.00;;;;;;4978263;28;20096;-77
2023/01/01 06:31:01;;;;;;;4.97;1.30;;;12.30;1.00;;;;;;4971651;28;20038;-79
2023/01/01 06:33:27;;;;;;;3.42;0.82;;;12.30;1.00;;;;;;4971634;28;20050;-77
2023/01/01 06:35:53;;;;;;;6.40;1.00;;;12.30;1.00;;;;;;4945232;28;20078;-76
2023/01/01 06:38:18;;;;;;;10.00;1.55;;;12.30;1.00;;;;;;4985030;28;20046;-82
2023/01/01 06:41:03;;;;;;;3.33;1.08;;;12.20;1.00;;;;;;4991349;28;20108;-77
2023/01/01 06:43:30;;;;;;;4.97;1.00;;;12.20;99.90;;;;;;4993012;28;20555;-78
2023/01/01 06:46:17;;;;;;;5.90;1.25;;;12.20;1.00;;;;;;4975598;28;20156;-79
2023/01/01 06:48:44;;;;;;;4.97;1.40;;;12.20;99.90;;;;;;4970350;28;20178;-77
2023/01/01 06:51:12;;;;;;;7.07;0.98;;;12.20;1.00;;;;;;4970040;28;20073;-78
2023/01/01 06:53:38;;;;;;;5.65;1.20;;;12.20;99.90;;;;;;4973588;28;20062;-77
2023/01/01 06:56:05;;;;;;;9.20;1.92;;;12.20;1.00;;;;;;4972716;28;20042;-77
2023/01/01 06:58:30;;;;;;;6.40;1.38;;;12.20;1.00;;;;;;4974973;28;20515;-77
2023/01/01 07:01:09;;;;;;;8.82;1.40;;;12.10;1.00;;;;;;4991783;28;20054;-77
2023/01/01 07:03:35;;;;;;;8.68;1.40;;;12.10;99.90;;;;;;4983312;28;20565;-77
2023/01/01 07:06:01;;;;;;;4.18;1.15;;;12.10;1.00;;;;;;4965074;28;20097;-77
2023/01/01 07:08:27;;;;;;;7.95;1.70;;;12.00;1.00;;;;;;4939222;28;20055;-77
2023/01/01 07:10:52;;;;;;;6.47;1.27;;;12.00;1.00;;;;;;4969659;28;20070;-77
2023/01/01 07:13:18;;;;;;;9.57;1.48;;;12.00;99.90;;;;;;4968720;28;20120;-77
2023/01/01 07:15:44;;;;;;;6.30;1.40;;;12.00;1.00;;;;;;4973084;28;20373;-77
2023/01/01 07:18:09;;;;;;;9.90;1.77;;;12.00;99.90;;;;;;4947313;28;20109;-78
2023/01/01 07:20:35;;;;;;;7.45;1.60;;;12.00;1.00;;;;;;4975345;28;20065;-77
2023/01/01 07:23:01;;;;;;;8.77;1.73;;;11.90;99.90;;;;;;4958652;28;20060;-77
2023/01/01 07:25:27;;;;;;;9.07;1.80;;;11.90;1.00;;;;;;4958638;28;20484;-78
2023/01/01 07:27:52;;;;;;;6.10;1.80;;;11.90;1.00;;;;;;4975403;28;20081;-77
2023/01/01 07:30:21;;;;;;;9.35;1.52;;;11.90;1.00;;;;;;4958677;28;20081;-77
2023/01/01 07:32:46;;;;;;;8.30;1.73;;;12.00;99.90;;;;;;4958809;28;20052;-77
2023/01/01 07:35:12;;;;;;;5.28;1.40;;;12.00;1.00;;;;;;4925968;28;20354;-78
2023/01/01 07:37:38;;;;;;;12.50;2.75;;;11.90;1.00;;;;;;4956784;28;20073;-78
2023/01/01 07:40:04;;;;;;;5.75;1.27;;;11.90;99.90;;;;;;4973383;28;20038;-77
2023/01/01 07:42:30;;;;;;;14.93;3.00;;;11.90;1.00;;;;;;4983299;28;20097;-77
2023/01/01 07:44:55;;;;;;;10.20;2.30;;;11.90;1.00;;;;;;4990371;28;20682;-77
2023/01/01 07:47:24;;;;;;;11.55;2.05;;;11.90;1.00;;;;;;4999910;28;20481;-77
2023/01/01 07:49:51;;;;;;;7.68;1.77;;;11.80;1.00;;;;;;4973321;28;20050;-77
2023/01/01 07:52:17;;;;;;;5.80;1.42;;;11.80;99.90;;;;;;4990114;28;20046;-78
2023/01/01 07:54:43;;;;;;;9.77;1.92;;;11.80;1.00;;;;;;4986128;28;20042;-79
2023/01/01 07:57:09;;;;;;;11.43;2.60;;;11.80;1.00;;;;;;4971204;28;20086;-78
2023/01/01 07:59:35;;;;;;;8.45;1.77;;;11.80;1.00;;;;;;4973583;28;20038;-77
2023/01/01 08:02:02;;;;;;;8.13;1.52;;;11.80;1.00;;;;;;4973552;28;20061;-77
2023/01/01 08:04:28;;;;;;;7.53;1.55;;;11.70;1.00;;;;;;4988487;28;20146;-86
2023/01/01 08:06:54;;;;;;;9.18;1.73;;;11.70;1.00;;;;;;4989045;28;20133;-76
2023/01/01 08:09:19;;;;;;;12.57;1.85;;;11.70;1.00;;;;;;4956755;28;20050;-78
2023/01/01 08:11:45;;;;;;;10.02;1.83;;;11.70;99.90;;;;;;4989322;28;20626;-77
2023/01/01 08:14:12;;;;;;;10.82;2.05;;;11.70;1.00;;;;;;4989761;28;20129;-77
2023/01/01 08:16:38;;;;;;;11.40;1.75;;;11.70;1.00;;;;;;4981335;28;20687;-77
2023/01/01 08:19:03;;;;;;;14.88;1.90;;;11.70;1.00;;;;;;4970356;28;20062;-77
2023/01/01 08:21:29;;;;;;;14.52;2.13;;;11.70;1.00;;;;;;4973843;28;20049;-82
2023/01/01 08:23:55;;;;;;;11.63;2.20;;;11.70;1.00;;;;;;4990374;28;20121;-77
2023/01/01 08:26:30;;;;;;;10.15;2.00;;;11.60;1.00;;;;;;4989365;28;20464;-77
2023/01/01 08:28:56;;;;;;;10.05;1.50;;;11.60;99.90;;;;;;4974104;28;20119;-76
2023/01/01 08:31:22;;;;;;;12.32;2.55;;;11.60;1.00;;;;;;4974394;28;20046;-77
2023/01/01 08:33:48;;;;;;;13.35;2.33;;;11.60;1.00;;;;;;4989604;28;20500;-76
2023/01/01 08:36:15;;;;;;;11.85;1.95;;;11.50;1.00;;;;;;4990642;28;20046;-77
2023/01/01 08:38:44;;;;;;;13.88;1.67;;;11.50;1.00;;;;;;4983818;28;20080;-76
2023/01/01 08:41:09;;;;;;;16.65;1.98;;;11.50;1.00;;;;;;4973659;28;20500;-77
2023/01/01 08:43:35;;;;;;;13.65;2.10;;;11.50;1.00;;;;;;4993147;28;20062;-77
2023/01/01 08:46:01;;;;;;;11.30;1.73;;;11.50;1.00;;;;;;4974221;28;20056;-77
2023/01/01 08:48:26;;;;;;;9.90;2.05;;;11.50;1.00;;;;;;4989804;28;20061;-77
2023/01/01 08:50:59;;;;;;;11.30;2.30;;;11.50;1.00;;;;;;4976748;28;20061;-77
2023/01/01 08:53:25;;;;;;;15.60;2.67;;;11.50;1.00;;;;;;4992620;28;20480;-77
2023/01/01 08:55:59;;;;;;;10.32;1.83;;;11.50;1.00;;;;;;4988002;28;20054;-80
2023/01/01 08:58:25;;;;;;;11.68;2.10;;;11.50;99.90;;;;;;4977490;28;20046;-76
2023/01/01 09:00:52;;;;;;;14.00;2.30;;;11.50;1.00;;;;;;4999247;28;20046;-77
2023/01/01 09:03:17;;;;;;;10.02;2.00;;;11.50;1.00;;;;;;4993601;28;20385;-77
2023/01/01 09:05:44;;;;;;;11.50;2.33;;;11.50;1.00;;;;;;4975096;28;20065;-80
2023/01/01 09:08:14;;;;;;;10.55;2.05;;;11.50;1.00;;;;;;4977852;28;20125;-76
2023/01/01 09:10:42;;;;;;;13.82;2.00;;;11.50;1.00;;;;;;4976727;28;20144;-77
2023/01/01 09:13:16;;;;;;;13.30;2.08;;;11.50;1.00;;;;;;4993072;28;20039;-76
2023/01/01 09:15:42;;;;;;;12.35;2.00;;;11.50;1.00;;;;;;4989738;28;20055;-77
2023/01/01 09:18:08;;;;;;;11.00;1.63;;;11.50;1.00;;;;;;4981095;28;20446;-77
2023/01/01 09:20:35;;;;;;;14.55;2.85;;;11.60;1.00;;;;;;4974399;28;20049;-80
2023/01/01 09:23:00;;;;;;;9.63;2.17;;;11.60;1.00;;;;;;4992998;28;20054;-77
2023/01/01 09:25:26;;;;;;;6.93;1.83;;;11.60;1.00;;;;;;4976762;28;20057;-77
2023/01/01 09:28:00;;;;;;;11.63;2.03;;;11.60;1.00;;;;;;4973088;28;20046;-77
2023/01/01 09:30:25;;;;;;;10.63;2.40;;;11.60;1.00;;;;;;4989952;28;20057;-77
2023/01/01 09:32:51;;;;;;;10.82;1.90;;;11.60;1.00;;;;;;4992512;28;20404;-77
2023/01/01 09:35:17;;;;;;;13.18;1.67;;;11.50;1.00;;;;;;4976131;28;20042;-77
2023/01/01 09:37:43;;;;;;;13.07;2.08;;;11.60;1.00;;;;;;4992793;28;20046;-77
2023/01/01 09:40:30;;;;;;;10.50;3.00;;;11.60;1.00;;;;;;4976620;28;20061;-77
2023/01/01 09:43:23;;;;;;;16.40;3.40;;;11.60;99.90;;;;;;4992743;28;20096;-76
2023/01/01 09:45:59;;;;;;;14.05;3.90;;;11.60;99.90;;;;;;4982258;28;20062;-77
2023/01/01 09:48:27;;;;;;;15.75;2.70;;;11.60;1.00;;;;;;4972770;28;20193;-76
2023/01/01 09:50:53;;;;;;;15.52;3.00;;;11.60;1.00;;;;;;4985126;28;20500;-77
2023/01/01 09:53:21;;;;;;;17.90;2.78;;;11.60;1.00;;;;;;4960448;28;20042;-79
2023/01/01 09:55:57;;;;;;;11.52;2.60;;;11.60;1.00;;;;;;4992535;28;20058;-77
2023/01/01 09:58:29;;;;;;;10.65;2.45;;;11.60;1.00;;;;;;4974507;28;20125;-78
2023/01/01 10:01:05;;;;;;;11.55;2.50;;;11.60;1.00;;;;;;4985981;28;20069;-79
2023/01/01 10:04:17;;;;;;;15.13;1.98;;;11.60;1.00;;;;;;4992405;28;20084;-78
2023/01/01 10:06:52;;;;;;;10.02;1.80;;;11.60;1.00;;;;;;4962084;28;20090;-85
2023/01/01 10:09:59;;;;;;;15.35;2.38;;;11.60;1.00;;;;;;4985897;28;20051;-77
2023/01/01 10:12:34;;;;;;;10.13;1.98;;;11.60;1.00;;;;;;4983409;28;20148;-76
2023/01/01 10:15:17;;;;;;;11.52;2.28;;;11.50;1.00;;;;;;4975530;28;20097;-77
2023/01/01 10:17:50;;;;;;;12.80;2.00;;;11.50;1.00;;;;;;4975573;28;20054;-77
2023/01/01 10:20:36;;;;;;;12.15;1.95;;;11.50;1.00;;;;;;4988603;28;20671;-83
2023/01/01 10:23:13;;;;;;;13.73;2.20;;;11.40;99.90;;;;;;4991752;28;20065;-77
2023/01/01 10:25:41;;;;;;;9.23;2.03;;;11.40;99.90;;;;;;4988562;28;20051;-77
2023/01/01 10:28:12;;;;;;;11.45;2.00;;;11.40;1.00;;;;;;4967120;28;20124;-77
2023/01/01 10:30:40;;;;;;;11.57;2.13;;;11.40;99.90;;;;;;4961967;28;20050;-78
2023/01/01 10:33:11;;;;;;;10.82;1.98;;;11.40;1.00;;;;;;4973567;28;20085;-77
2023/01/01 10:35:48;;;;;;;9.70;2.25;;;11.40;1.00;;;;;;4991513;28;20121;-78
2023/01/01 10:38:25;;;;;;;17.58;2.60;;;11.40;99.90;;;;;;4991315;28;20052;-77
2023/01/01 10:40:54;;;;;;;11.05;2.28;;;11.50;1.00;;;;;;4982405;28;20125;-78
2023/01/01 10:43:20;;;;;;;16.40;2.90;;;11.50;1.00;;;;;;4969658;28;20081;-77
2023/01/01 10:45:54;;;;;;;15.25;2.50;;;11.50;1.00;;;;;;4975088;28;20054;-77
2023/01/01 10:48:25;;;;;;;15.07;2.17;;;11.50;99.90;;;;;;4980688;28;20474;-77
2023/01/01 10:51:06;;;;;;;16.23;2.42;;;11.60;99.90;;;;;;4994061;28;20081;-79
2023/01/01 10:53:40;;;;;;;16.27;2.80;;;11.60;99.90;;;;;;4978869;28;20054;-78
2023/01/01 10:56:15;;;;;;;12.00;2.20;;;11.70;1.00;;;;;;4977310;28;20069;-78
2023/01/01 10:58:55;;;;;;;10.73;1.55;;;11.70;99.90;;;;;;4990803;28;20062;-78
2023/01/01 11:01:32;;;;;;;12.23;1.70;;;11.60;99.90;;;;;;4992628;28;20056;-79
2023/01/01 11:04:08;;;;;;;12.18;1.80;;;11.60;99.90;;;;;;4977236;28;20037;-77
2023/01/01 11:06:34;;;;;;;;;;;11.60;99.90;;;;;;4978048;28;20471;-78
2023/01/01 11:09:02;;;;;;;;;;;11.60;1.00;;;;;;4997895;28;19925;-78
2023/01/01 11:11:32;;;;;;;11.35;2.33;;;11.60;99.90;;;;;;4984894;28;19929;-79
2023/01/01 11:14:03;;;;;;;9.02;2.40;;;11.60;1.00;;;;;;4992909;28;20065;-77
2023/01/01 11:16:29;;;;;;;10.60;2.10;;;11.70;99.90;;;;;;4993955;28;20053;-78
2023/01/01 11:19:02;;;;;;;11.82;2.05;;;11.70;99.90;;;;;;4993038;28;20099;-78
2023/01/01 11:21:28;;;;;;;14.50;2.00;;;11.70;99.90;;;;;;4985252;28;20157;-79
2023/01/01 11:24:16;;;;;;;13.27;2.35;;;11.70;1.00;;;;;;4993402;28;20045;-85
2023/01/01 11:26:42;;;;;;;8.25;2.10;;;11.70;99.90;;;;;;4994052;28;20084;-78
2023/01/01 11:29:28;;;;;;;10.30;1.90;;;11.70;99.90;;;;;;5010555;28;20041;-77
2023/01/01 11:31:55;;;;;;;17.08;2.35;;;11.80;99.90;;;;;;4976681;28;20042;-83
2023/01/01 11:34:26;;;;;;;13.27;2.47;;;11.80;99.90;;;;;;4993627;28;20057;-78
2023/01/01 11:37:04;;;;;;;11.23;2.22;;;11.90;99.90;;;;;;4993448;28;20045;-77
2023/01/01 11:39:34;;;;;;;13.55;2.22;;;11.90;99.90;;;;;;4977537;28;20133;-78
2023/01/01 11:42:00;;;;;;;10.43;1.75;;;11.90;99.90;;;;;;4993279;28;20046;-78
2023/01/01 11:44:43;;;;;;;14.90;2.40;;;12.00;99.90;;;;;;4983720;28;20116;-79
2023/01/01 11:47:26;;;;;;;13.57;1.98;;;12.10;97.60;;;;;;4965952;28;20045;-78
2023/01/01 11:50:17;;;;;;;11.27;2.13;;;12.10;99.90;;;;;;4992784;28;20049;-78
2023/01/01 11:52:45;;;;;;;14.98;1.85;;;12.10;1.00;;;;;;4979322;28;20054;-81
2023/01/01 11:55:19;;;;;;;11.85;1.80;;;12.10;1.00;;;;;;5005467;28;20045;-78
2023/01/01 11:58:02;;;;;;;9.90;2.13;;;12.20;99.90;;;;;;4993327;28;20046;-79
2023/01/01 12:00:31;;;;;;;12.10;2.42;;;12.20;1.00;;;;;;5001291;28;20085;-77
2023/01/01 12:03:29;;;;;;;16.65;2.10;;;12.30;1.00;;;;;;4987473;28;20082;-84
2023/01/01 12:06:19;;;;;;;13.27;2.00;;;12.30;1.00;;;;;;4987298;28;21344;-78
2023/01/01 12:09:17;;;;;;;13.18;1.80;;;12.30;1.00;;;;;;4987766;28;20389;-78
2023/01/01 12:12:08;;;;;;;10.18;2.03;;;12.40;1.00;;;;;;4942653;28;20058;-83
2023/01/01 12:15:13;;;;;;;9.85;1.70;;;12.50;1.00;;;;;;4976823;28;20054;-78
2023/01/01 12:17:42;;;;;;;13.85;2.05;;;12.50;1.00;;;;;;4972335;28;20065;-78
2023/01/01 12:20:29;;;;;;;12.65;2.10;;;12.50;1.00;;;;;;4987418;28;20060;-78
2023/01/01 12:22:56;;;;;;;11.00;1.85;;;12.50;99.90;;;;;;4969551;28;20047;-80
2023/01/01 12:25:22;;;;;;;11.52;2.00;;;12.50;1.00;;;;;;4972479;28;20177;-78
2023/01/01 12:28:23;;;;;;;18.10;3.15;;;12.40;1.00;;;;;;4983590;28;20137;-79
2023/01/01 12:31:12;;;;;;;8.38;2.05;;;12.50;1.00;;;;;;4980507;28;20057;-78
2023/01/01 12:33:49;;;;;;;19.48;3.15;;;12.40;1.00;;;;;;4999435;28;20084;-78
2023/01/01 12:36:52;;;;;;;14.43;2.63;;;12.40;1.00;;;;;;4996420;28;20041;-79
2023/01/01 12:39:29;;;;;;;12.32;2.33;;;12.50;1.00;;;;;;4970535;28;20054;-78
2023/01/01 12:42:09;;;;;;;15.95;2.92;;;12.40;1.00;;;;;;4995925;28;20050;-79
2023/01/01 12:44:52;;;;;;;11.07;2.45;;;12.40;1.00;;;;;;4987220;28;20058;-79
2023/01/01 12:47:29;;;;;;;17.77;3.00;;;12.40;1.00;;;;;;4993408;28;20057;-79
2023/01/01 12:50:22;;;;;;;12.48;2.15;;;12.30;1.00;;;;;;4986766;28;20596;-78
2023/01/01 12:52:51;;;;;;;12.93;2.20;;;12.30;1.00;;;;;;4993464;28;20093;-80
2023/01/01 12:55:50;;;;;;;8.40;2.00;;;12.30;1.00;;;;;;4993107;28;20507;-78
2023/01/01 12:58:27;;;;;;;13.43;3.13;;;12.30;1.00;;;;;;4980046;28;20050;-79
2023/01/01 13:00:57;;;;;;;14.20;2.80;;;12.30;1.00;;;;;;4993577;28;20047;-78
2023/01/01 13:03:30;;;;;;;11.10;2.30;;;12.30;1.00;;;;;;4993322;28;20057;-79
2023/01/01 13:05:57;;;;;;;13.27;2.85;;;12.30;1.00;;;;;;4992897;28;20049;-78